ZMUB/ULN METAR and TAF weather

Enter ICAO airport designator
Station Type Date Time Source
ZMUB METAR 2020/10/29 17:00 UTC NOAA

ZMUB 291700Z VRB01MPS 9999 BKN250 M06/M11 Q1018 NOSIG RMK QFE656.2 63 NT


Station Type Date Time Source
ZMUB Decoded METAR 2020/10/29 17:00 UTC NOAA

Ulan-Bator, Mongolia (ZMUB) 47-51N 106-46E
Oct 29, 2020 - 01:00 PM EDT / 2020.10.29 1700 UTC
Wind: Variable at 2 MPH (2 KT):0
Visibility: greater than 7 mile(s):0
Sky conditions: mostly cloudy
Temperature: 21 F (-6 C)
Dew Point: 12 F (-11 C)
Relative Humidity: 67%
Pressure (altimeter): 30.06 in. Hg (1018 hPa)
ob: ZMUB 291700Z VRB01MPS 9999 BKN250 M06/M11 Q1018 NOSIG RMK QFE656.2 63 NT
cycle: 17

Station Type Date Time Source
ZMUB TAF 2020/10/29 18:42 UTC NOAA

TAF TAF ZMUB 291637Z 2918/3024 VRB02MPS 9999 SCT100 TNM08/2922Z TX06/3007Z
BECMG 3005/3007 31006MPS SCT033 BKN100
TEMPO 3006/3018 6000 -SNRA SCT030 BKN080
BECMG 3012/3014 VRB02MPS

Example: see airport list